Tiempo atmosférico en la estación meteorológica de Astorga, León (919 m.)



Fecha
DESCASC
Temp. máxima en grados centígrados (hora)
DESCASC
Temp. mínima en grados centígrados (hora)
DESCASC
Temp. media en grados centígrados
DESCASC
Racha de viento máxima en m/sg (hora)
DESCASC
Velocidad máxima media en intervalos de 10 minutos(hora)
DESCASC
Precipitaciones diarias en mm
DESCASC
Precipitaciones de 00:00 a 06:00 en mm
DESCASC
Precipitaciones de 06:00 a 12:00 en mm
DESCASC
Precipitaciones de 12:00 a 18:00 en mm
DESCASC
Precipitaciones de 18:00 a 24:00 en mm
DESCASC
16-06-2019 26.5 (19:30) 4.4 (06:40) 15.5 9.44 (17:00) 5 (17:10) 0 0 0 0 0
15-06-2019 23.4 (17:30) 6.1 (06:50) 14.7 7.78 (15:50) 4.72 (15:50) 0 0 0 0 0
14-06-2019 21.9 (15:50) 3.4 (07:30) 12.6 11.11 (19:10) 6.67 (18:50) 0 0 0 0 0
13-06-2019 22.2 (17:40) 2.5 (00:00) 12.4 12.5 (15:40) 6.67 (15:30) 0 0 0 0 0
12-06-2019 20.8 (17:20) 2.7 (00:00) 11.7 9.44 (14:10) 5.28 (09:40) 0 0 0 0 0
11-06-2019 17.8 (16:40) 6 (00:00) 11.9 13.33 (14:40) 9.44 (14:40) 0 0 0 0 0
10-06-2019 20.2 (15:20) 3.3 (00:00) 11.8 11.11 (17:10) 7.22 (17:10) 0 0 0 0 0
09-06-2019 21.9 (15:50) 6.8 (00:00) 14.3 12.22 (20:00) 7.22 (20:00) 0 0 0 0 0
08-06-2019 21.8 (18:40) 2 (00:00) 11.9 7.5 (15:20) 5.28 (18:10) 0 0 0 0 0
07-06-2019 15.5 (18:20) 4.7 (00:00) 10.1 12.78 (16:30) 7.5 (16:30) 0.2 0 0.2 0 0
06-06-2019 14.2 (16:10) 2.7 (00:00) 8.4 16.11 (17:30) 11.11 (14:50) 3.2 0 0 0 3.2
05-06-2019 15.8 (16:50) 6.5 (00:00) 11.2 15 (14:20) 8.33 (14:20) 0 0 0 0 0
04-06-2019 21 (14:00) 9.2 (00:00) 15.1 12.78 (16:40) 6.94 (15:30) 0 0 0 0 0
03-06-2019 28.5 (18:00) 13.5 (00:00) 21 8.61 (19:00) 5.83 (19:10) 0 0 0 0 0
02-06-2019 29.8 (15:20) 12.4 (00:00) 21.1 9.44 (15:40) 5.56 (15:50) 0 0 0 0 0
01-06-2019 32.1 (18:00) 10.6 (00:00) 21.3 11.94 (15:50) 5 (20:10) 0 0 0 0 0
31-05-2019 30.9 (16:10) 9.1 (00:00) 20 9.72 (16:20) 3.89 (16:30) 0 0 0 0 0
30-05-2019 30.3 (18:30) 7.3 (00:00) 18.8 8.06 (17:40) 4.44 (17:30) 0 0 0 0 0
29-05-2019 27.3 (19:00) 3.3 (00:00) 15.3 7.22 (19:50) 4.17 (20:20) 0 0 0 0 0
28-05-2019 23.9 (16:50) 4.2 (00:00) 14 11.39 (18:30) 8.89 (21:40) 0 0 0 0 0
27-05-2019 26.6 (17:30) 10.1 (00:00) 18.4 9.72 (17:50) 6.11 (19:20) 0 0 0 0 0
26-05-2019 29.1 (18:10) 5.4 (00:00) 17.3 10 (16:50) 5.28 (16:50) 0 0 0 0 0
25-05-2019 25.1 (17:00) 2.4 (00:00) 13.8 11.39 (18:40) 7.5 (00:10) 0 0 0 0 0
24-05-2019 22.8 (16:50) 4.1 (00:00) 13.4 13.89 (19:20) 9.44 (23:30) 0 0 0 0 0
23-05-2019 23.6 (15:30) 10.4 (00:00) 17 12.5 (18:30) 7.78 (16:50) 0 0 0 0 0
22-05-2019 25.8 (17:00) 5.7 (00:00) 15.7 7.78 (14:10) 4.17 (14:10) 0 0 0 0 0
21-05-2019 24.6 (18:20) 4.8 (07:30) 14.7 7.22 (15:20) 3.89 (02:30) 0 0 0 0 0

Gráficas

Temp. máximas Temp. mínimas Temp. medias Precipitaciones Rachas de viento máximas Velocidades máximas media en intervalos de 10 minutos

Datos horarios

Fecha y hora oficial Temperatura (ºC) Velocidad del viento (km/h) Dirección del viento Racha (km/h) Dirección de racha Precipitación (mm) Presión (hPa) Tendencia (hPa) Humedad (%)
2019-06-19 23:00:00 14 4 Noroeste 14 Norte 0 -- -- 73
2019-06-19 22:00:00 15.4 5 Norte 29 Noroeste 0 -- -- 68
2019-06-19 21:00:00 18.7 17 Noroeste 34 Noroeste 0 -- -- 57
2019-06-19 20:00:00 20.1 19 Noroeste 39 Noroeste 0 -- -- 53
2019-06-19 19:00:00 21.2 18 Noroeste 33 Noroeste 0 -- -- 48
2019-06-19 18:00:00 22.4 15 Noroeste 28 Noroeste 0 -- -- 48
2019-06-19 17:00:00 22.4 13 Norte 25 Noroeste 0 -- -- 48
2019-06-19 16:00:00 21.4 13 Norte -- -- -- -- -- 52
2019-06-19 15:00:00 22.4 12 Norte -- -- -- -- -- 51
2019-06-19 14:00:00 22.2 6 Noroeste 12 Norte 0 -- -- 50
2019-06-19 13:00:00 20 8 Sudoeste 15 Oeste 0 -- -- 55
2019-06-19 12:00:00 19.1 3 Sur 9 Este 0 -- -- 62
2019-06-19 11:00:00 16.6 3 Nordeste 10 Nordeste 0 -- -- 72
2019-06-19 10:00:00 -- -- -- -- -- -- -- -- --
2019-06-19 09:00:00 -- -- -- -- -- -- -- -- --
2019-06-19 08:00:00 -- -- -- -- -- -- -- -- --
2019-06-19 07:00:00 -- -- -- -- -- -- -- -- --
2019-06-19 06:00:00 12.7 5 Nordeste 10 Norte 0 -- -- 98
2019-06-19 05:00:00 13 6 Norte 10 Nordeste 0 -- -- 98
2019-06-19 04:00:00 12.6 9 Nordeste 12 Nordeste 0 -- -- 97
2019-06-19 03:00:00 13.2 -- -- -- -- -- -- -- --
2019-06-19 02:00:00 13.5 8 Sudoeste 18 Sur 0 -- -- 92
2019-06-19 01:00:00 13.2 6 Norte 31 Sudoeste 0.6 -- -- 96
2019-06-19 00:00:00 13.8 26 Sur 36 Sudoeste 0 -- -- 93
2019-06-18 23:00:00 13.9 13 Sur 37 Sur 0.8 -- -- 92
2019-06-18 22:00:00 14.9 23 Sur 35 Sudoeste 0 -- -- 84
2019-06-18 21:00:00 15.7 21 Sur 49 Sur 0 -- -- 79
2019-06-18 20:00:00 16.6 35 Sur 49 Sudoeste 0 -- -- 71
2019-06-18 19:00:00 17.6 24 Sudoeste 44 Sur 0 -- -- 63
2019-06-18 18:00:00 18.4 31 Sur 54 Sur 0 -- -- 58
2019-06-18 17:00:00 19.9 33 Sur 49 Sudoeste 0 -- -- 52
2019-06-18 16:00:00 19.4 33 Sudoeste 55 Sudoeste 0 -- -- 54
2019-06-18 15:00:00 16.9 37 Sur 61 Sur 0 -- -- 66
2019-06-18 14:00:00 18.2 30 Sudoeste 67 Sur 0 -- -- 55
2019-06-18 13:00:00 22.1 35 Sur 63 Sudoeste 0 -- -- 40
2019-06-18 12:00:00 20.9 34 Sur 51 Sur 0 -- -- 42
2019-06-18 11:00:00 20.3 28 Sur 40 Sur 0 -- -- 43
2019-06-18 10:00:00 18 25 Sur 36 Sur 0 -- -- 45
2019-06-18 09:00:00 16.3 10 Sudeste 17 Sudeste 0 -- -- 46
2019-06-18 08:00:00 11.7 6 Norte 8 Nordeste 0 -- -- 57
2019-06-18 07:00:00 11.1 2 Este 7 Norte 0 -- -- 57
2019-06-18 06:00:00 12.6 5 Norte 8 Norte 0 -- -- 52
2019-06-18 05:00:00 12.9 5 Norte 8 Norte 0 -- -- 51
2019-06-18 04:00:00 14.6 5 Norte 8 Norte 0 -- -- 46
2019-06-18 03:00:00 15.2 2 Noroeste 9 Norte 0 -- -- 45
2019-06-18 02:00:00 16.2 6 Norte 8 Nordeste 0 -- -- 43
2019-06-18 01:00:00 17.4 5 Este 12 Sudoeste 0 -- -- 40
2019-06-18 00:00:00 18.4 6 Sudoeste 26 Sudoeste 0 -- -- 37
2019-06-17 23:00:00 19.5 14 Sudoeste 30 Sur 0 -- -- 31
2019-06-17 22:00:00 20.3 12 Oeste 37 Sudoeste 0 -- -- 28
2019-06-17 21:00:00 21.2 17 Sudoeste 34 Sudoeste 0 -- -- 25
2019-06-17 20:00:00 22.1 17 Sudoeste 36 Sudoeste 0 -- -- 25
2019-06-17 19:00:00 22.7 17 Sudoeste 31 Sur 0 -- -- 27
2019-06-17 18:00:00 23.1 13 Sudoeste 27 Sudoeste 0 -- -- 19
2019-06-17 17:00:00 23.5 22 Sudoeste 48 Sudoeste 0 -- -- 19
2019-06-17 16:00:00 25.3 24 Sudoeste 44 Sudoeste 0 -- -- 19
2019-06-17 15:00:00 25.2 23 Sudoeste 45 Sur 0 -- -- 18
2019-06-17 14:00:00 25.2 23 Sur 48 Sur 0 -- -- 23
2019-06-17 13:00:00 23.9 29 Sur 46 Sur 0 -- -- 25
2019-06-17 12:00:00 21.8 15 Sudeste 28 Sudeste 0 -- -- 47
2019-06-17 11:00:00 20.7 10 Sudeste 21 Sur 0 -- -- 52
2019-06-17 10:00:00 18.9 7 Sudeste 14 Este 0 -- -- 57
2019-06-17 09:00:00 15.9 6 Norte 9 Norte 0 -- -- 62
2019-06-17 08:00:00 10.6 3 Nordeste 5 Nordeste 0 -- -- 77
2019-06-17 07:00:00 9.1 3 Nordeste 4 Nordeste 0 -- -- 85
2019-06-17 06:00:00 10.1 0 Calma 13 Noroeste 0 -- -- 82
2019-06-17 05:00:00 11.2 12 Noroeste 14 Norte 0 -- -- 80
2019-06-17 04:00:00 10.5 7 Norte 10 Norte 0 -- -- 86
2019-06-17 03:00:00 12 3 Norte 8 Norte 0 -- -- 76
2019-06-17 02:00:00 13.8 3 Norte 6 Nordeste 0 -- -- 68
2019-06-17 01:00:00 14 8 Norte 14 Norte 0 -- -- 65
2019-06-17 00:00:00 16.6 0 Calma 15 Noroeste 0 -- -- 58
2019-06-16 23:00:00 18.7 10 Noroeste 17 Noroeste 0 -- -- 52
2019-06-16 22:00:00 21 8 Norte 17 Sudeste 0 -- -- 40
2019-06-16 21:00:00 23.5 7 Este 16 Este 0 -- -- 28
2019-06-16 20:00:00 24.8 12 Este 19 Este 0 -- -- 26
2019-06-16 19:00:00 25.6 8 Sudeste 23 Este 0 -- -- 25
2019-06-16 18:00:00 24.9 15 Sudeste 32 Sudeste 0 -- -- 28
2019-06-16 17:00:00 25.4 17 Sudeste 34 Sudeste 0 -- -- 28
2019-06-16 16:00:00 24.9 12 Sudeste 31 Sur 0 -- -- 30
2019-06-16 15:00:00 23.2 13 Sur 26 Sur 0 -- -- 32
2019-06-16 14:00:00 22.1 14 Sudeste 24 Sudeste 0 -- -- 36
2019-06-16 13:00:00 20.9 9 Sur 22 Sudeste 0 -- -- 39
2019-06-16 12:00:00 19.3 8 Sur 16 Sur 0 -- -- 46
2019-06-16 11:00:00 17.8 7 Sudeste 15 Este 0 -- -- 51
2019-06-16 10:00:00 16.9 5 Nordeste 11 Este 0 -- -- 54
2019-06-16 09:00:00 13.1 3 Norte 6 Nordeste 0 -- -- 67
2019-06-16 08:00:00 7.7 3 Nordeste 10 Noroeste 0 -- -- 80
2019-06-16 07:00:00 6.2 9 Noroeste 10 Noroeste 0 -- -- 93
2019-06-16 06:00:00 6.8 2 Este 10 Noroeste 0 -- -- 87
2019-06-16 05:00:00 7.4 0 Calma 14 Norte 0 -- -- 87
2019-06-16 04:00:00 7.3 13 Norte 15 Norte 0 -- -- 86
2019-06-16 03:00:00 9.1 5 Este 9 Este 0 -- -- 78
2019-06-16 02:00:00 9.9 5 Norte 8 Norte 0 -- -- 74
2019-06-16 01:00:00 11 7 Noroeste 10 Norte 0 -- -- 69
2019-06-16 00:00:00 12.2 6 Noroeste 9 Noroeste 0 -- -- 64
2019-06-15 23:00:00 13.9 6 Noroeste 18 Noroeste 0 -- -- 58
2019-06-15 22:00:00 15.7 8 Noroeste 22 Noroeste 0 -- -- 54
2019-06-15 21:00:00 19.2 12 Noroeste 22 Noroeste 0 -- -- 45
2019-06-15 20:00:00 21.3 13 Noroeste 22 Noroeste 0 -- -- 39
2019-06-15 19:00:00 23 11 Noroeste 20 Noroeste 0 -- -- 37
2019-06-15 18:00:00 21.2 7 Sur 27 Sur 0 -- -- 33
2019-06-15 17:00:00 21.5 10 Sudoeste 26 Sur 0 -- -- 32
2019-06-15 16:00:00 21.1 7 Sudeste 28 Sur 0 -- -- 33
2019-06-15 15:00:00 18.7 10 Sudeste 27 Sudeste 0 -- -- 38
2019-06-15 14:00:00 18.1 12 Sur 27 Sudoeste 0 -- -- 40
2019-06-15 13:00:00 16.4 4 Sudoeste 15 Sudeste 0 -- -- 44
2019-06-15 12:00:00 15.3 7 Sudoeste 18 Oeste 0 -- -- 48
2019-06-15 11:00:00 14.5 7 Sudoeste 21 Noroeste 0 -- -- 50
2019-06-15 10:00:00 15.1 8 Oeste 19 Oeste 0 -- -- 50
2019-06-15 09:00:00 10.8 8 Nordeste 12 Nordeste 0 -- -- 66
2019-06-15 08:00:00 7.2 5 Norte 9 Norte 0 -- -- 81
2019-06-15 07:00:00 6.1 2 Sudoeste 6 Oeste 0 -- -- 83
2019-06-15 06:00:00 7.2 4 Oeste 8 Noroeste 0 -- -- 78
2019-06-15 05:00:00 7.1 2 Sudoeste 13 Oeste 0 -- -- 82
2019-06-15 04:00:00 7.9 3 Noroeste 12 Noroeste 0 -- -- 79
2019-06-15 03:00:00 8.8 6 Noroeste 15 Oeste 0 -- -- 77
2019-06-15 02:00:00 9.2 5 Oeste 13 Noroeste 0 -- -- 74
2019-06-15 01:00:00 10 2 Norte 19 Noroeste 0 -- -- 68
2019-06-15 00:00:00 10.7 5 Noroeste 27 Oeste 0 -- -- 66
2019-06-14 23:00:00 11.7 12 Noroeste 30 Noroeste 0 -- -- 61
2019-06-14 22:00:00 12.8 21 Noroeste 35 Noroeste 0 -- -- 57
2019-06-14 21:00:00 15.1 21 Noroeste 39 Noroeste 0 -- -- 48
2019-06-14 20:00:00 18.1 22 Noroeste 40 Noroeste 0 -- -- 39
2019-06-14 19:00:00 20.3 20 Noroeste 38 Norte 0 -- -- 35
2019-06-14 18:00:00 18.7 14 Noroeste 26 Oeste 0 -- -- 42
2019-06-14 17:00:00 17.8 15 Noroeste 32 Noroeste 0 -- -- 45
2019-06-14 16:00:00 20.6 13 Noroeste 23 Noroeste 0 -- -- 38
2019-06-14 15:00:00 20.5 12 Norte 27 Noroeste 0 -- -- 38
2019-06-14 14:00:00 18.8 11 Sur 29 Sur 0 -- -- 40
2019-06-14 13:00:00 19 11 Sudeste 24 Sudeste 0 -- -- 41
2019-06-14 12:00:00 17.6 8 Sur 15 Sudoeste 0 -- -- 43
2019-06-14 11:00:00 16.5 6 Sudeste 14 Sudeste 0 -- -- 51
2019-06-14 10:00:00 15.9 3 Norte 11 Nordeste 0 -- -- 53
2019-06-14 09:00:00 10.6 6 Norte 10 Norte 0 -- -- 69
2019-06-14 08:00:00 5.2 3 Norte 8 Norte 0 -- -- 83
2019-06-14 07:00:00 5.3 0 Calma 10 Noroeste 0 -- -- 84
2019-06-14 06:00:00 5.7 8 Noroeste 17 Norte 0 -- -- 86
2019-06-14 05:00:00 5 11 Norte 14 Norte 0 -- -- 86
2019-06-14 04:00:00 5.8 8 Este 14 Este 0 -- -- 81
2019-06-14 03:00:00 7.4 3 Noroeste 6 Noroeste 0 -- -- 72
2019-06-14 02:00:00 7.7 4 Nordeste 9 Norte 0 -- -- 70
2019-06-14 01:00:00 8.2 6 Noroeste 10 Noroeste 0 -- -- 65
2019-06-14 00:00:00 9.7 3 Nordeste 18 Noroeste 0 -- -- 59
2019-06-13 23:00:00 10.7 9 Noroeste 15 Noroeste 0 -- -- 57
2019-06-13 22:00:00 12.9 8 Norte 31 Noroeste 0 -- -- 51
2019-06-13 21:00:00 16.1 16 Noroeste 39 Oeste 0 -- -- 43
2019-06-13 20:00:00 18.3 19 Noroeste 35 Noroeste 0 -- -- 39
2019-06-13 19:00:00 20.4 17 Noroeste 33 Noroeste 0 -- -- 36
2019-06-13 18:00:00 19.9 13 Oeste 28 Noroeste 0 -- -- 37
2019-06-13 17:00:00 22.1 10 Oeste 38 Sudoeste 0 -- -- 31
2019-06-13 16:00:00 20.3 23 Sur 45 Sur 0 -- -- 29
2019-06-13 15:00:00 19.1 23 Sur 38 Sudoeste 0 -- -- 33
2019-06-13 14:00:00 18.1 20 Sur 36 Sur 0 -- -- 38
2019-06-13 13:00:00 17.2 18 Sur 31 Sur 0 -- -- 42
2019-06-13 12:00:00 15 12 Sur 19 Sur 0 -- -- 50
2019-06-13 11:00:00 15 8 Sur 15 Sur 0 -- -- 49
2019-06-13 10:00:00 15.1 2 Este 9 Nordeste 0 -- -- 50
2019-06-13 09:00:00 9.2 6 Nordeste 9 Norte 0 -- -- 72
2019-06-13 08:00:00 4.5 5 Nordeste 8 Norte 0 -- -- 83
2019-06-13 07:00:00 2.5 6 Norte 9 Norte 0 -- -- 89
2019-06-13 06:00:00 4.4 5 Noroeste 11 Norte 0 -- -- 85
2019-06-13 05:00:00 5.1 4 Oeste 12 Norte 0 -- -- 83
2019-06-13 04:00:00 5.3 12 Norte 15 Norte 0 -- -- 85
2019-06-13 03:00:00 5.7 9 Este 12 Este 0 -- -- 78
2019-06-13 02:00:00 8.1 3 Sudeste 8 Sudeste 0 -- -- 68
2019-06-13 01:00:00 8.5 3 Norte 9 Nordeste 0 -- -- 64
2019-06-13 00:00:00 9.6 6 Nordeste 28 Oeste 0 -- -- 58
2019-06-12 23:00:00 11.3 16 Oeste 30 Oeste 0 -- -- 53
2019-06-12 22:00:00 12.8 12 Noroeste 22 Oeste 0 -- -- 48
2019-06-12 21:00:00 16.3 14 Noroeste 27 Oeste 0 -- -- 40
2019-06-12 20:00:00 19 12 Noroeste 26 Oeste 0 -- -- 35
2019-06-12 19:00:00 19.6 11 Noroeste 25 Noroeste 0 -- -- 33
2019-06-12 18:00:00 20 10 Noroeste 24 Oeste 0 -- -- 31
2019-06-12 17:00:00 19.6 7 Norte 22 Este 0 -- -- 27
2019-06-12 16:00:00 17.7 9 Sudeste 24 Sur 0 -- -- 30
2019-06-12 15:00:00 17.6 13 Sudoeste 34 Oeste 0 -- -- 30
2019-06-12 14:00:00 16 11 Sur 22 Sur 0 -- -- 31
2019-06-12 13:00:00 15.9 6 Sur 21 Este 0 -- -- 37
2019-06-12 12:00:00 15.1 9 Nordeste 25 Norte 0 -- -- 38
2019-06-12 11:00:00 12.8 8 Noroeste 25 Noroeste 0 -- -- 45
2019-06-12 10:00:00 11.7 18 Noroeste 30 Norte 0 -- -- 48
2019-06-12 09:00:00 9.1 4 Norte 14 Nordeste 0 -- -- 62
2019-06-12 08:00:00 4 6 Nordeste 16 Noroeste 0 -- -- 81
2019-06-12 07:00:00 4.5 10 Noroeste 28 Oeste 0 -- -- 78
2019-06-12 06:00:00 4.5 15 Oeste 25 Oeste 0 -- -- 79
2019-06-12 05:00:00 5.1 17 Oeste 27 Oeste 0 -- -- 77
2019-06-12 04:00:00 5.2 14 Oeste 22 Oeste 0 -- -- 75
2019-06-12 03:00:00 5.5 8 Oeste 22 Noroeste 0 -- -- 72
2019-06-12 02:00:00 6 6 Oeste 18 Oeste 0 -- -- 69
2019-06-12 01:00:00 6 4 Nordeste 20 Noroeste 0 -- -- 69
2019-06-12 00:00:00 6.8 9 Noroeste 21 Noroeste 0 -- -- 65
2019-06-11 23:00:00 7.4 8 Norte 22 Norte 0 -- -- 60
2019-06-11 22:00:00 9.6 15 Norte 28 Noroeste 0 -- -- 55
2019-06-11 21:00:00 13.8 15 Norte 34 Noroeste 0 -- -- 42
2019-06-11 20:00:00 15.1 24 Noroeste 36 Noroeste 0 -- -- 41
2019-06-11 19:00:00 17.2 21 Noroeste 37 Norte 0 -- -- 37
2019-06-11 18:00:00 16.1 23 Norte 39 Norte 0 -- -- 41
2019-06-11 17:00:00 17.1 23 Norte 41 Noroeste 0 -- -- 34
2019-06-11 16:00:00 17.1 24 Norte 44 Norte 0 -- -- 36
2019-06-11 15:00:00 15.9 27 Norte 48 Norte 0 -- -- 35
2019-06-11 14:00:00 15.1 20 Norte 42 Norte 0 -- -- 38
2019-06-11 13:00:00 15.3 15 Noroeste 40 Nordeste 0 -- -- 38
2019-06-11 12:00:00 13.6 18 Noroeste 41 Norte 0 -- -- 41
2019-06-11 11:00:00 13.6 23 Norte 40 Norte 0 -- -- 40
2019-06-11 10:00:00 12.4 17 Norte 33 Noroeste 0 -- -- 51
2019-06-11 09:00:00 10.3 16 Noroeste 27 Noroeste 0 -- -- 60
2019-06-11 08:00:00 8 13 Noroeste 25 Noroeste 0 -- -- 71
2019-06-11 07:00:00 6.3 13 Noroeste 28 Noroeste 0 -- -- 78
2019-06-11 06:00:00 6 9 Noroeste 22 Oeste 0 -- -- 75
2019-06-11 05:00:00 6.6 8 Oeste 22 Oeste 0 -- -- 72
2019-06-11 04:00:00 7.3 13 Noroeste 33 Noroeste 0 -- -- 69
2019-06-11 03:00:00 7.9 19 Noroeste 36 Noroeste 0 -- -- 68
2019-06-11 02:00:00 8.9 18 Noroeste 34 Noroeste 0 -- -- 65
2019-06-11 01:00:00 9.8 12 Oeste 32 Noroeste 0 -- -- 64
2019-06-11 00:00:00 10.9 17 Noroeste 28 Noroeste 0 -- -- 63
2019-06-10 23:00:00 11.7 16 Noroeste 31 Noroeste 0 -- -- 63
2019-06-10 22:00:00 12.7 17 Noroeste 33 Noroeste 0 -- -- 57
2019-06-10 21:00:00 15.5 23 Noroeste 38 Noroeste 0 -- -- 45
2019-06-10 20:00:00 15.7 15 Noroeste 32 Noroeste 0 -- -- 41
2019-06-10 19:00:00 17.2 17 Noroeste 33 Noroeste 0 -- -- 38
2019-06-10 18:00:00 17.9 15 Noroeste 40 Noroeste 0 -- -- 37
2019-06-10 17:00:00 17.4 23 Noroeste 35 Noroeste 0 -- -- 32
2019-06-10 16:00:00 19.8 20 Noroeste 35 Noroeste 0 -- -- 31
2019-06-10 15:00:00 19.3 18 Noroeste 32 Noroeste 0 -- -- 24
2019-06-10 14:00:00 18.5 14 Noroeste 31 Sudoeste 0 -- -- 30
2019-06-10 13:00:00 18 11 Noroeste 24 Oeste 0 -- -- 30
2019-06-10 12:00:00 15.5 14 Oeste 28 Oeste 0 -- -- 39
2019-06-10 11:00:00 15.1 10 Noroeste 27 Nordeste 0 -- -- 47
2019-06-10 10:00:00 13.7 8 Oeste 15 Noroeste 0 -- -- 53
2019-06-10 09:00:00 11.5 5 Norte 14 Noroeste 0 -- -- 68
2019-06-10 08:00:00 8 6 Noroeste 22 Oeste 0 -- -- 82
2019-06-10 07:00:00 3.8 3 Sudeste 10 Oeste 0 -- -- 95
2019-06-10 06:00:00 3.7 6 Norte 14 Norte 0 -- -- 92
2019-06-10 05:00:00 3.8 13 Norte 16 Norte 0 -- -- 92
2019-06-10 04:00:00 4.5 9 Norte 13 Norte 0 -- -- 90
2019-06-10 03:00:00 5.7 9 Nordeste 16 Oeste 0 -- -- 86
2019-06-10 02:00:00 8.8 8 Noroeste 16 Oeste 0 -- -- 77
2019-06-10 01:00:00 8.5 6 Norte 11 Nordeste 0 -- -- 73
2019-06-10 00:00:00 9.9 6 Nordeste 19 Noroeste 0 -- -- 66
2019-06-09 23:00:00 11 6 Noroeste 23 Oeste 0 -- -- 64
2019-06-09 22:00:00 12.4 9 Noroeste 32 Norte 0 -- -- 59
2019-06-09 21:00:00 15.6 19 Noroeste 41 Norte 0 -- -- 48
2019-06-09 20:00:00 17.3 26 Noroeste 44 Noroeste 0 -- -- 46
2019-06-09 19:00:00 19.8 19 Noroeste 39 Noroeste 0 -- -- 38
2019-06-09 18:00:00 20.2 19 Noroeste 32 Noroeste 0 -- -- 37
2019-06-09 17:00:00 19.8 18 Noroeste 32 Noroeste 0 -- -- 36
2019-06-09 16:00:00 21.4 18 Noroeste 42 Norte 0 -- -- 32
2019-06-09 15:00:00 21.1 15 Norte 33 Noroeste 0 -- -- 34
2019-06-09 14:00:00 19.5 12 Oeste 23 Oeste 0 -- -- 40
2019-06-09 13:00:00 19.2 12 Norte 26 Nordeste 0 -- -- 42
2019-06-09 12:00:00 16.6 7 Norte 19 Nordeste 0 -- -- 49
2019-06-09 11:00:00 16.1 6 Sur 12 Sudoeste 0 -- -- 53
2019-06-09 10:00:00 15.4 4 Nordeste 10 Norte 0 -- -- 57
2019-06-09 09:00:00 10.1 3 Norte 5 Norte 0 -- -- 76
2019-06-09 08:00:00 7.6 2 Oeste 5 Norte 0 -- -- 85
2019-06-09 07:00:00 7.2 4 Nordeste 10 Noroeste 0 -- -- 87
2019-06-09 06:00:00 7.2 7 Norte 10 Norte 0 -- -- 86
2019-06-09 05:00:00 7.7 4 Noroeste 15 Noroeste 0 -- -- 84
2019-06-09 04:00:00 8.3 10 Noroeste 17 Norte 0 -- -- 86
2019-06-09 03:00:00 8.7 9 Nordeste 14 Norte 0 -- -- 83
2019-06-09 02:00:00 10.6 9 Nordeste 10 Este 0 -- -- 75
2019-06-09 01:00:00 12.3 2 Sudeste 11 Noroeste 0 -- -- 68
2019-06-09 00:00:00 12.9 7 Norte 15 Norte 0 -- -- 66
2019-06-08 23:00:00 13.4 5 Noroeste 15 Noroeste 0 -- -- 62
2019-06-08 22:00:00 14.7 9 Noroeste 16 Noroeste 0 -- -- 58
2019-06-08 21:00:00 16 12 Noroeste 24 Noroeste 0 -- -- 54
2019-06-08 20:00:00 18.8 10 Noroeste 20 Sudoeste 0 -- -- 44
2019-06-08 19:00:00 20 12 Sur 27 Sur 0 -- -- 30
2019-06-08 18:00:00 20.5 13 Sur 24 Sur 0 -- -- 31
2019-06-08 17:00:00 20.8 6 Sudeste 22 Sudeste 0 -- -- 32
2019-06-08 16:00:00 19.4 13 Sudeste 27 Sudoeste 0 -- -- 35
2019-06-08 15:00:00 17.9 10 Sudeste 24 Sudeste 0 -- -- 40
2019-06-08 14:00:00 16.9 14 Sur 24 Sur 0 -- -- 41
2019-06-08 13:00:00 15.9 10 Sur 25 Sudeste 0 -- -- 44
2019-06-08 12:00:00 14.7 7 Sudeste 19 Este 0 -- -- 51
2019-06-08 11:00:00 12.8 4 Sur 15 Sur 0 -- -- 62
2019-06-08 10:00:00 10.3 5 Sudeste 11 Sudeste 0 -- -- 70
2019-06-08 09:00:00 6.8 3 Norte 11 Norte 0 -- -- 85
2019-06-08 08:00:00 3.6 10 Norte 15 Norte 0 -- -- 96
2019-06-08 07:00:00 2.5 10 Norte 14 Norte 0 -- -- 96
2019-06-08 06:00:00 2.9 5 Norte 8 Norte 0 -- -- 95
2019-06-08 05:00:00 2.8 8 Norte 9 Norte 0 -- -- 95
2019-06-08 04:00:00 3.1 5 Nordeste 7 Norte 0 -- -- 93
2019-06-08 03:00:00 4.4 2 Noroeste 13 Norte 0 -- -- 89
2019-06-08 02:00:00 3.8 5 Norte 11 Norte 0 -- -- 89
2019-06-08 01:00:00 4.7 4 Norte 10 Oeste 0 -- -- 86
2019-06-08 00:00:00 6.4 4 Oeste 11 Noroeste 0 -- -- 80
2019-06-07 23:00:00 6.5 6 Norte 16 Noroeste 0 -- -- 80
2019-06-07 22:00:00 8.3 9 Noroeste 18 Norte 0 -- -- 72
2019-06-07 21:00:00 12.1 9 Norte 29 Noroeste 0 -- -- 56
2019-06-07 20:00:00 12.3 19 Noroeste 46 Noroeste 0 -- -- 54
2019-06-07 19:00:00 13.8 25 Noroeste 46 Noroeste 0 -- -- 49
2019-06-07 18:00:00 15.1 19 Oeste 44 Noroeste 0 -- -- 41
2019-06-07 17:00:00 14.6 21 Noroeste 46 Noroeste 0 -- -- 50
2019-06-07 16:00:00 15.1 15 Oeste 31 Oeste 0 -- -- 40
2019-06-07 15:00:00 14.4 19 Oeste 34 Oeste 0 -- -- 42
2019-06-07 14:00:00 13.6 17 Oeste 35 Norte 0 -- -- 49
2019-06-07 13:00:00 11.6 16 Noroeste 37 Norte 0 -- -- 52
2019-06-07 12:00:00 11.2 15 Noroeste 35 Oeste 0 -- -- 58
2019-06-07 11:00:00 10.2 18 Noroeste 37 Oeste 0.2 -- -- 61
2019-06-07 10:00:00 8.3 21 Oeste 40 Oeste 0 -- -- 69
2019-06-07 09:00:00 7.1 16 Noroeste 35 Oeste 0 -- -- 77
2019-06-07 08:00:00 5.3 14 Sudoeste 26 Oeste 0 -- -- 82
2019-06-07 07:00:00 5.2 9 Sudoeste 18 Oeste 0 -- -- 83
2019-06-07 06:00:00 4.8 6 Sudoeste 26 Sudoeste 0 -- -- 85
2019-06-07 05:00:00 5.6 9 Sudoeste 21 Oeste 0 -- -- 85
2019-06-07 04:00:00 5.5 3 Oeste 25 Oeste 0 -- -- 84
2019-06-07 03:00:00 5.2 14 Oeste 27 Oeste 0 -- -- 86
2019-06-07 02:00:00 5.8 8 Noroeste 21 Noroeste 0 -- -- 84
2019-06-07 01:00:00 6 5 Noroeste 14 Oeste 0 -- -- 84
2019-06-07 00:00:00 7 4 Norte 18 Sudoeste 0 -- -- 87
2019-06-06 23:00:00 7.1 8 Noroeste 18 Noroeste 0 -- -- 86
2019-06-06 22:00:00 8.3 10 Noroeste 20 Noroeste 0 -- -- 86
2019-06-06 21:00:00 10.1 8 Oeste 44 Sur 1.8 -- -- 89
2019-06-06 20:00:00 10 38 Sur 58 Sur 0.6 -- -- 92
2019-06-06 19:00:00 10.2 31 Sur 44 Sudoeste 0.8 -- -- 89
2019-06-06 18:00:00 11.9 31 Sudoeste 58 Sur 0 -- -- 71
2019-06-06 17:00:00 13.9 36 Sur 56 Sur 0 -- -- 51
2019-06-06 16:00:00 13.6 28 Sudoeste 55 Sur 0 -- -- 51
2019-06-06 15:00:00 13.1 33 Sur 57 Sur 0 -- -- 50
2019-06-06 14:00:00 12.8 32 Sur 54 Sudoeste 0 -- -- 49
2019-06-06 13:00:00 12.6 28 Sur 49 Sudoeste 0 -- -- 51
2019-06-06 12:00:00 12.5 24 Sur 45 Sur 0 -- -- 52
2019-06-06 11:00:00 10.6 24 Sur 38 Sur 0 -- -- 61
2019-06-06 10:00:00 8.7 15 Sudeste 27 Sudeste 0 -- -- 70
2019-06-06 09:00:00 5.9 6 Sudeste 10 Sudeste 0 -- -- 82
2019-06-06 08:00:00 4.4 0 Calma 5 Norte 0 -- -- 87
2019-06-06 07:00:00 2.9 3 Norte 8 Norte 0 -- -- 93
2019-06-06 06:00:00 3.2 4 Este 8 Este 0 -- -- 92
2019-06-06 05:00:00 4.5 2 Nordeste 5 Oeste 0 -- -- 85
2019-06-06 04:00:00 4 3 Norte 14 Noroeste 0 -- -- 87
2019-06-06 03:00:00 4.3 9 Noroeste 14 Noroeste 0 -- -- 85
2019-06-06 02:00:00 5.3 7 Norte 14 Norte 0 -- -- 84
2019-06-06 01:00:00 6.6 5 Noroeste 13 Noroeste 0 -- -- 78
2019-06-06 00:00:00 6.7 7 Noroeste 13 Nordeste 0 -- -- 77
2019-06-05 23:00:00 7.4 9 Norte 28 Noroeste 0 -- -- 75
2019-06-05 22:00:00 8.2 12 Noroeste 21 Noroeste 0 -- -- 69
2019-06-05 21:00:00 8.9 15 Noroeste 37 Noroeste 0 -- -- 66
2019-06-05 20:00:00 11.5 17 Noroeste 31 Oeste 0 -- -- 54
2019-06-05 19:00:00 12.7 17 Noroeste 37 Noroeste 0 -- -- 53
2019-06-05 18:00:00 13.5 20 Noroeste 40 Noroeste 0 -- -- 48
2019-06-05 17:00:00 14.3 21 Oeste 50 Noroeste 0 -- -- 42
2019-06-05 16:00:00 14.7 22 Noroeste 40 Noroeste 0 -- -- 46
2019-06-05 15:00:00 14.1 20 Oeste 54 Noroeste 0 -- -- 45
2019-06-05 14:00:00 14.5 23 Noroeste 41 Noroeste 0 -- -- 39
2019-06-05 13:00:00 13.7 24 Oeste 42 Oeste 0 -- -- 48
2019-06-05 12:00:00 13.9 20 Noroeste 37 Noroeste 0 -- -- 48
2019-06-05 11:00:00 12.3 17 Noroeste 41 Norte 0 -- -- 53
2019-06-05 10:00:00 12.3 21 Noroeste 34 Noroeste 0 -- -- 55
2019-06-05 09:00:00 10.4 11 Noroeste 22 Noroeste 0 -- -- 62
2019-06-05 08:00:00 8.2 11 Noroeste 21 Noroeste 0 -- -- 69
2019-06-05 07:00:00 7.1 9 Noroeste 19 Noroeste 0 -- -- 74
2019-06-05 06:00:00 6.5 6 Noroeste 21 Noroeste 0 -- -- 77
2019-06-05 05:00:00 7.2 10 Noroeste 19 Norte 0 -- -- 75
2019-06-05 04:00:00 7.2 4 Oeste 18 Noroeste 0 -- -- 77
2019-06-05 03:00:00 7.5 5 Noroeste 21 Noroeste 0 -- -- 76
2019-06-05 02:00:00 7.6 5 Norte 23 Oeste 0 -- -- 77
2019-06-05 01:00:00 8.2 14 Oeste 22 Oeste 0 -- -- 75
2019-06-05 00:00:00 9.2 13 Noroeste 33 Noroeste 0 -- -- 70
2019-06-04 23:00:00 10.3 16 Noroeste 33 Noroeste 0 -- -- 67
2019-06-04 22:00:00 11.6 17 Noroeste 31 Noroeste 0 -- -- 63
2019-06-04 21:00:00 15.5 14 Noroeste 29 Noroeste 0 -- -- 46
2019-06-04 20:00:00 17.4 14 Noroeste 30 Noroeste 0 -- -- 40
2019-06-04 19:00:00 18.1 18 Oeste 37 Oeste 0 -- -- 38
2019-06-04 18:00:00 18.1 19 Oeste 41 Oeste 0 -- -- 41
2019-06-04 17:00:00 17.6 22 Noroeste 46 Oeste 0 -- -- 42
2019-06-04 16:00:00 17.1 22 Noroeste 45 Noroeste 0 -- -- 52
2019-06-04 15:00:00 18.4 22 Noroeste 40 Oeste 0 -- -- 53
2019-06-04 14:00:00 21 13 Noroeste 33 Oeste 0 -- -- 47
2019-06-04 13:00:00 18.5 14 Noroeste 24 Noroeste 0 -- -- 55
2019-06-04 12:00:00 17.4 17 Sudeste 26 Sudeste 0 -- -- 57
2019-06-04 11:00:00 18.2 14 Sur 23 Sur 0 -- -- 53
2019-06-04 10:00:00 17.2 10 Oeste 20 Noroeste 0 -- -- 53
2019-06-04 09:00:00 13.6 12 Noroeste 24 Noroeste 0 -- -- 69
2019-06-04 08:00:00 11.3 2 Nordeste 8 Norte 0 -- -- 83
2019-06-04 07:00:00 10.2 2 Norte 6 Noroeste 0 -- -- 86
2019-06-04 06:00:00 10.6 4 Noroeste 6 Norte 0 -- -- 84
2019-06-04 05:00:00 11.8 3 Norte 12 Norte 0 -- -- 83
2019-06-04 04:00:00 11.9 6 Norte 8 Noroeste 0 -- -- 86
2019-06-04 03:00:00 12.8 2 Sur 9 Norte 0 -- -- 84
2019-06-04 02:00:00 13 7 Norte 8 Norte 0 -- -- 85
2019-06-04 01:00:00 14.7 3 Sudoeste 5 Sudeste 0 -- -- 80
2019-06-04 00:00:00 15.6 4 Oeste 9 Noroeste 0 -- -- 77
2019-06-03 23:00:00 16.7 4 Noroeste 18 Oeste 0 -- -- 72
2019-06-03 22:00:00 19.1 10 Oeste 22 Noroeste 0 -- -- 64
2019-06-03 21:00:00 21.6 13 Noroeste 27 Noroeste 0 -- -- 56
2019-06-03 20:00:00 23.3 15 Noroeste 31 Noroeste 0 -- -- 50
2019-06-03 19:00:00 26.4 18 Noroeste 31 Noroeste 0 -- -- 42
2019-06-03 18:00:00 28.5 15 Norte 26 Noroeste 0 -- -- 39
2019-06-03 17:00:00 26.3 11 Noroeste 24 Noroeste 0 -- -- 42
2019-06-03 16:00:00 25.7 11 Sur 23 Sur 0 -- -- 38
2019-06-03 15:00:00 26.2 8 Este 27 Sudeste 0 -- -- 35
2019-06-03 14:00:00 25.9 10 Sudeste 23 Sudeste 0 -- -- 36
2019-06-03 13:00:00 24.8 9 Sudeste 18 Sudeste 0 -- -- 37
2019-06-03 12:00:00 23.9 9 Sur 23 Norte 0 -- -- 39
2019-06-03 11:00:00 23.3 5 Sur 13 Norte 0 -- -- 38
2019-06-03 10:00:00 21.3 6 Norte 14 Oeste 0 -- -- 41
2019-06-03 09:00:00 18.1 0 Calma 6 Nordeste 0 -- -- 49
2019-06-03 08:00:00 14.8 0 Calma 8 Noroeste 0 -- -- 59
2019-06-03 07:00:00 14.1 6 Noroeste 11 Noroeste 0 -- -- 60
2019-06-03 06:00:00 14.8 0 Calma 10 Oeste 0 -- -- 57
2019-06-03 05:00:00 16 7 Norte 13 Norte 0 -- -- 52
2019-06-03 04:00:00 16.4 7 Noroeste 12 Oeste 0 -- -- 53
2019-06-03 03:00:00 17.1 6 Norte 11 Nordeste 0 -- -- 51
2019-06-03 02:00:00 18 8 Norte 22 Noroeste 0 -- -- 48
2019-06-03 01:00:00 18.3 10 Noroeste 18 Noroeste 0 -- -- 43
2019-06-03 00:00:00 18.3 3 Noroeste 19 Noroeste 0 -- -- 42
2019-06-02 23:00:00 20.1 10 Noroeste 26 Noroeste 0 -- -- 40
2019-06-02 22:00:00 21 11 Noroeste 19 Noroeste 0 -- -- 41
2019-06-02 21:00:00 22.5 8 Noroeste 21 Noroeste 0 -- -- 36
2019-06-02 20:00:00 23.8 14 Noroeste 24 Noroeste 0 -- -- 32
2019-06-02 19:00:00 24.5 15 Noroeste 29 Noroeste 0 -- -- 33
2019-06-02 18:00:00 25.9 17 Noroeste 31 Noroeste 0 -- -- 30
2019-06-02 17:00:00 27.8 15 Noroeste 31 Oeste 0 -- -- 27
2019-06-02 16:00:00 28.2 15 Noroeste 34 Norte 0 -- -- 25
2019-06-02 15:00:00 29.4 11 Este 22 Este 0 -- -- 23
2019-06-02 14:00:00 27.3 8 Nordeste 34 Sudeste 0 -- -- 25
2019-06-02 13:00:00 27.7 4 Norte 20 Sudoeste 0 -- -- 24
2019-06-02 12:00:00 26.5 9 Oeste 22 Noroeste 0 -- -- 23
2019-06-02 11:00:00 26.1 11 Noroeste 32 Sudeste 0 -- -- 25
2019-06-02 10:00:00 24 2 Sudeste 8 Noroeste 0 -- -- 28
2019-06-02 09:00:00 19.8 3 Nordeste 14 Norte 0 -- -- 42
2019-06-02 08:00:00 12.5 9 Norte 14 Noroeste 0 -- -- 58
2019-06-02 07:00:00 12.8 4 Norte 8 Sur 0 -- -- 60
2019-06-02 06:00:00 14.3 0 Calma 6 Nordeste 0 -- -- 54
2019-06-02 05:00:00 15.2 4 Sudoeste 6 Norte 0 -- -- 52
2019-06-02 04:00:00 15.3 6 Norte 8 Nordeste 0 -- -- 51
2019-06-02 03:00:00 17.2 2 Sudeste 6 Este 0 -- -- 48
2019-06-02 02:00:00 19.1 3 Noroeste 9 Oeste 0 -- -- 42
2019-06-02 01:00:00 19.1 5 Norte 17 Oeste 0 -- -- 43
2019-06-02 00:00:00 20.9 5 Noroeste 19 Noroeste 0 -- -- 38
2019-06-01 23:00:00 22.4 10 Noroeste 23 Noroeste 0 -- -- 31
2019-06-01 22:00:00 24.1 12 Noroeste 27 Noroeste 0 -- -- 34
2019-06-01 21:00:00 27.3 18 Noroeste 37 Noroeste 0 -- -- 32
2019-06-01 20:00:00 30.5 15 Noroeste 29 Noroeste 0 -- -- 28
2019-06-01 19:00:00 30.6 16 Norte 28 Norte 0 -- -- 27
2019-06-01 18:00:00 32.1 15 Norte 41 Norte 0 -- -- 26
2019-06-01 17:00:00 29.8 17 Norte 32 Norte 0 -- -- 28
2019-06-01 16:00:00 30 17 Norte 43 Norte 0 -- -- 27
2019-06-01 15:00:00 31.9 7 Sudoeste 28 Sur 0 -- -- 24
2019-06-01 14:00:00 29.9 10 Sudeste 25 Sur 0 -- -- 27
2019-06-01 13:00:00 28.7 12 Sur 18 Sur 0 -- -- 29
2019-06-01 12:00:00 27.1 6 Sur 13 Sur 0 -- -- 31
2019-06-01 11:00:00 25.5 6 Este 14 Este 0 -- -- 34
2019-06-01 10:00:00 23.6 5 Este 11 Este 0 -- -- 37
2019-06-01 09:00:00 20.2 0 Calma 8 Oeste 0 -- -- 48
2019-06-01 08:00:00 14.2 6 Oeste 9 Oeste 0 -- -- 59
2019-06-01 07:00:00 12.2 0 Calma 4 Noroeste 0 -- -- 64
2019-06-01 06:00:00 11.3 0 Calma 6 Noroeste 0 -- -- 67
2019-06-01 05:00:00 11.7 5 Noroeste 8 Noroeste 0 -- -- 65
2019-06-01 04:00:00 15.4 3 Noroeste 10 Noroeste 0 -- -- 52
2019-06-01 03:00:00 16.6 6 Norte 14 Norte 0 -- -- 48
2019-06-01 02:00:00 16.7 12 Norte 14 Norte 0 -- -- 48
2019-06-01 01:00:00 16.2 5 Norte 11 Norte 0 -- -- 42
2019-06-01 00:00:00 18.2 10 Noroeste 16 Norte 0 -- -- 35
2019-05-31 23:00:00 23.3 3 Oeste 9 Sudeste 0 -- -- 26
2019-05-31 22:00:00 24.8 7 Sudeste 14 Sudeste 0 -- -- 23
2019-05-31 21:00:00 28.3 11 Sudeste 20 Sudeste 0 -- -- 21
2019-05-31 20:00:00 29.8 13 Sudeste 23 Sudeste 0 -- -- 20
2019-05-31 19:00:00 30.4 14 Sudeste 23 Sudeste 0 -- -- 20
2019-05-31 18:00:00 30.4 13 Sudeste 24 Sudeste 0 -- -- 20
2019-05-31 17:00:00 30.3 12 Sur 35 Sudeste 0 -- -- 21
2019-05-31 16:00:00 30.4 7 Este 21 Nordeste 0 -- -- 21
2019-05-31 15:00:00 28.9 6 Sudoeste 19 Este 0 -- -- 23
2019-05-31 14:00:00 28.6 8 Este 21 Este 0 -- -- 24
2019-05-31 13:00:00 27.6 5 Sudeste 17 Sudeste 0 -- -- 27
2019-05-31 12:00:00 26.4 5 Sudeste 14 Sur 0 -- -- 28
2019-05-31 11:00:00 24.5 5 Sur 12 Sur 0 -- -- 34
2019-05-31 10:00:00 22.5 4 Sur 7 Oeste 0 -- -- 46
2019-05-31 09:00:00 18.8 3 Nordeste 8 Norte 0 -- -- 58
2019-05-31 08:00:00 12 5 Norte 6 Norte 0 -- -- 77
2019-05-31 07:00:00 9.4 3 Noroeste 6 Norte 0 -- -- 87
2019-05-31 06:00:00 10.1 2 Nordeste 7 Norte 0 -- -- 81
2019-05-31 05:00:00 10.2 6 Norte 8 Norte 0 -- -- 79
2019-05-31 04:00:00 11.6 7 Norte 8 Norte 0 -- -- 74
2019-05-31 03:00:00 15.6 0 Calma 5 Norte 0 -- -- 62
2019-05-31 02:00:00 17 3 Norte 8 Nordeste 0 -- -- 57
2019-05-31 01:00:00 17.8 3 Norte 15 Nordeste 0 -- -- 54
2019-05-31 00:00:00 18.6 12 Nordeste 17 Norte 0 -- -- 50
2019-05-30 23:00:00 19.3 13 Norte 19 Norte 0 -- -- 45
2019-05-30 22:00:00 22 10 Norte 21 Nordeste 0 -- -- 40
2019-05-30 21:00:00 26.8 6 Nordeste 13 Este 0 -- -- 31
2019-05-30 20:00:00 26.7 5 Este 21 Sudeste 0 -- -- 32
2019-05-30 19:00:00 29.1 6 Sur 17 Sudeste 0 -- -- 29
2019-05-30 18:00:00 27.6 8 Sudeste 29 Sur 0 -- -- 30
2019-05-30 17:00:00 29.8 7 Nordeste 24 Sur 0 -- -- 27
2019-05-30 16:00:00 27.9 10 Sur 24 Sudeste 0 -- -- 30
2019-05-30 15:00:00 26.6 10 Sudeste 22 Sudeste 0 -- -- 30
2019-05-30 14:00:00 25.3 9 Sur 20 Sur 0 -- -- 30
2019-05-30 13:00:00 23.3 10 Sudeste 20 Sudeste 0 -- -- 38
2019-05-30 12:00:00 22.1 8 Sudeste 17 Sur 0 -- -- 41
2019-05-30 11:00:00 19.3 6 Sudeste 15 Sur 0 -- -- 48
2019-05-30 10:00:00 17.7 4 Sur 10 Sur 0 -- -- 51
2019-05-30 09:00:00 14.5 4 Nordeste 6 Nordeste 0 -- -- 58
2019-05-30 08:00:00 8.7 4 Norte 5 Nordeste 0 -- -- 77
2019-05-30 07:00:00 7.9 3 Sur 5 Sudeste 0 -- -- 78
2019-05-30 06:00:00 8.6 3 Noroeste 9 Norte 0 -- -- 77
2019-05-30 05:00:00 9.9 6 Norte 8 Norte 0 -- -- 71
2019-05-30 04:00:00 10.2 6 Norte 7 Norte 0 -- -- 69
2019-05-30 03:00:00 11.2 4 Nordeste 14 Sudoeste 0 -- -- 66
2019-05-30 02:00:00 14 10 Sudoeste 13 Sudoeste 0 -- -- 58
2019-05-30 01:00:00 14.9 4 Sudoeste 10 Sur 0 -- -- 57
2019-05-30 00:00:00 16.2 6 Sudeste 15 Este 0 -- -- 54
2019-05-29 23:00:00 16.4 7 Nordeste 20 Nordeste 0 -- -- 45
2019-05-29 22:00:00 19.4 12 Nordeste 20 Nordeste 0 -- -- 38
2019-05-29 21:00:00 23.7 12 Nordeste 23 Nordeste 0 -- -- 30
2019-05-29 20:00:00 26.7 11 Este 26 Este 0 -- -- 26
2019-05-29 19:00:00 27.3 10 Nordeste 23 Sudeste 0 -- -- 30
2019-05-29 18:00:00 26.1 8 Sudeste 22 Sudeste 0 -- -- 31
2019-05-29 17:00:00 25.4 8 Sudeste 20 Sudeste 0 -- -- 33
2019-05-29 16:00:00 23.4 8 Sudeste 24 Sudeste 0 -- -- 36
2019-05-29 15:00:00 22.3 9 Sudeste 25 Sur 0 -- -- 38
2019-05-29 14:00:00 20.8 8 Sur 21 Sudeste 0 -- -- 39
2019-05-29 13:00:00 19.6 8 Sur 23 Sur 0 -- -- 42
2019-05-29 12:00:00 17.8 11 Sur 21 Sur 0 -- -- 45
2019-05-29 11:00:00 15.4 9 Sudeste 17 Sudeste 0 -- -- 50
2019-05-29 10:00:00 13.1 8 Sur 13 Sur 0 -- -- 57
2019-05-29 09:00:00 10.4 4 Sudeste 9 Sudeste 0 -- -- 64
2019-05-29 08:00:00 5.8 0 Calma 9 Norte 0 -- -- 81
2019-05-29 07:00:00 3.7 5 Nordeste 8 Nordeste 0 -- -- 87
2019-05-29 06:00:00 3.6 3 Sudeste 9 Oeste 0 -- -- 87
2019-05-29 05:00:00 5.7 4 Norte 6 Norte 0 -- -- 79
2019-05-29 04:00:00 7.3 4 Noroeste 10 Noroeste 0 -- -- 73
2019-05-29 03:00:00 7.2 3 Noroeste 8 Noroeste 0 -- -- 75
2019-05-29 02:00:00 8.1 5 Noroeste 16 Norte 0 -- -- 71
2019-05-29 01:00:00 8.6 13 Norte 19 Norte 0 -- -- 70
2019-05-29 00:00:00 9.8 12 Norte 24 Nordeste 0 -- -- 65
2019-05-28 23:00:00 10.8 19 Nordeste 34 Nordeste 0 -- -- 62
2019-05-28 22:00:00 12.5 25 Nordeste 41 Nordeste 0 -- -- 55
2019-05-28 21:00:00 15.6 23 Nordeste 40 Norte 0 -- -- 48
2019-05-28 20:00:00 18.4 28 Nordeste 40 Nordeste 0 -- -- 40
2019-05-28 19:00:00 20.6 30 Nordeste 41 Nordeste 0 -- -- 33
2019-05-28 18:00:00 23 23 Norte 37 Norte 0 -- -- 31
2019-05-28 17:00:00 23.9 14 Nordeste 33 Norte 0 -- -- 30
2019-05-28 16:00:00 22.9 15 Noroeste 40 Noroeste 0 -- -- 31
2019-05-28 15:00:00 22.2 15 Norte 32 Norte 0 -- -- 30
2019-05-28 14:00:00 21.3 14 Norte 27 Norte 0 -- -- 28
2019-05-28 13:00:00 20.7 18 Norte 28 Norte 0 -- -- 28
2019-05-28 12:00:00 18 6 Sudeste 16 Nordeste 0 -- -- 37
2019-05-28 11:00:00 15.8 5 Sudeste 12 Sur 0 -- -- 44
2019-05-28 10:00:00 13.2 5 Sur 12 Sudoeste 0 -- -- 54
2019-05-28 09:00:00 10.7 3 Sur 6 Norte 0 -- -- 60
2019-05-28 08:00:00 6.1 2 Sur 5 Norte 0 -- -- 71
2019-05-28 07:00:00 4.3 0 Calma 6 Nordeste 0 -- -- 77
2019-05-28 06:00:00 5.6 0 Calma 9 Sudoeste 0 -- -- 72
2019-05-28 05:00:00 7.7 8 Oeste 12 Oeste 0 -- -- 65
2019-05-28 04:00:00 8.1 7 Oeste 10 Oeste 0 -- -- 63
2019-05-28 03:00:00 8.4 7 Sudoeste 11 Oeste 0 -- -- 65
2019-05-28 02:00:00 9.3 5 Sur 7 Sur 0 -- -- 63
2019-05-28 01:00:00 10.5 6 Sudoeste 8 Sudoeste 0 -- -- 59
2019-05-28 00:00:00 12.1 3 Nordeste 9 Norte 0 -- -- 53
2019-05-27 23:00:00 13.2 8 Norte 13 Nordeste 0 -- -- 51
2019-05-27 22:00:00 15 6 Nordeste 19 Este 0 -- -- 50
2019-05-27 21:00:00 18.9 12 Noroeste 28 Oeste 0 -- -- 38
2019-05-27 20:00:00 21.8 15 Noroeste 35 Noroeste 0 -- -- 36
2019-05-27 19:00:00 23.8 18 Noroeste 32 Noroeste 0 -- -- 35
2019-05-27 18:00:00 24.6 14 Noroeste 35 Nordeste 0 -- -- 33
2019-05-27 17:00:00 25.9 8 Noroeste 23 Sur 0 -- -- 33
2019-05-27 16:00:00 25.7 4 Norte 29 Norte 0 -- -- 35
2019-05-27 15:00:00 24.5 10 Noroeste 24 Noroeste 0 -- -- 38
2019-05-27 14:00:00 22.9 14 Norte 30 Noroeste 0 -- -- 39
2019-05-27 13:00:00 23.8 10 Norte 21 Norte 0 -- -- 36
2019-05-27 12:00:00 21.4 13 Norte 26 Norte 0 -- -- 43
2019-05-27 11:00:00 21.4 12 Norte 22 Norte 0 -- -- 43
2019-05-27 10:00:00 20 3 Sudeste 9 Sudeste 0 -- -- 51
2019-05-27 09:00:00 16 3 Sur 8 Norte 0 -- -- 63
2019-05-27 08:00:00 12.3 5 Nordeste 8 Noroeste 0 -- -- 75
2019-05-27 07:00:00 10.5 5 Este 9 Nordeste 0 -- -- 80
2019-05-27 06:00:00 10.6 4 Nordeste 8 Nordeste 0 -- -- 79
2019-05-27 05:00:00 10.1 7 Nordeste 10 Norte 0 -- -- 81
2019-05-27 04:00:00 11 4 Sur 10 Norte 0 -- -- 77
2019-05-27 03:00:00 13 2 Oeste 13 Noroeste 0 -- -- 67
2019-05-27 02:00:00 14.7 4 Noroeste 11 Noroeste 0 -- -- 63
2019-05-27 01:00:00 15.1 5 Sudeste 9 Sudeste 0 -- -- 64
2019-05-27 00:00:00 16.8 9 Noroeste 23 Noroeste 0 -- -- 59
2019-05-26 23:00:00 18.4 12 Noroeste 20 Noroeste 0 -- -- 52
2019-05-26 22:00:00 19.7 13 Norte 30 Noroeste 0 -- -- 45
2019-05-26 21:00:00 23.4 16 Noroeste 28 Noroeste 0 -- -- 34
2019-05-26 20:00:00 25.7 18 Noroeste 33 Noroeste 0 -- -- 28
2019-05-26 19:00:00 28.2 16 Noroeste 27 Norte 0 -- -- 26
2019-05-26 18:00:00 28.9 14 Norte 31 Norte 0 -- -- 27
2019-05-26 17:00:00 28.1 19 Noroeste 36 Noroeste 0 -- -- 28
2019-05-26 16:00:00 28 11 Norte 31 Norte 0 -- -- 29
2019-05-26 15:00:00 26.6 17 Norte 29 Norte 0 -- -- 32
2019-05-26 14:00:00 25.6 11 Norte 23 Norte 0 -- -- 33
2019-05-26 13:00:00 22.4 6 Sudoeste 15 Sudeste 0 -- -- 41
2019-05-26 12:00:00 19.1 6 Sur 15 Sur 0 -- -- 48
2019-05-26 11:00:00 16.2 7 Sur 11 Sur 0 -- -- 55
2019-05-26 10:00:00 14.4 3 Sur 9 Sur 0 -- -- 58
2019-05-26 09:00:00 11.9 3 Sudeste 6 Sudoeste 0 -- -- 63
2019-05-26 08:00:00 6.8 4 Norte 8 Norte 0 -- -- 83
2019-05-26 07:00:00 5.6 4 Norte 5 Norte 0 -- -- 86
2019-05-26 06:00:00 6.8 3 Nordeste 5 Norte 0 -- -- 83
2019-05-26 05:00:00 8.3 3 Sur 9 Sudoeste 0 -- -- 76
2019-05-26 04:00:00 8.6 3 Sudoeste 5 Sudeste 0 -- -- 78
2019-05-26 03:00:00 8.8 3 Este 12 Oeste 0 -- -- 77
2019-05-26 02:00:00 11.7 8 Oeste 13 Oeste 0 -- -- 69
2019-05-26 01:00:00 12 0 Calma 13 Oeste 0 -- -- 67
2019-05-26 00:00:00 12.6 3 Nordeste 12 Nordeste 0 -- -- 65
2019-05-25 23:00:00 14.3 12 Nordeste 19 Norte 0 -- -- 59
2019-05-25 22:00:00 16.8 13 Nordeste 31 Nordeste 0 -- -- 52
2019-05-25 21:00:00 20.2 19 Nordeste 34 Nordeste 0 -- -- 43
2019-05-25 20:00:00 22.1 23 Nordeste 35 Nordeste 0 -- -- 39
2019-05-25 19:00:00 23.7 20 Nordeste 41 Nordeste 0 -- -- 34
2019-05-25 18:00:00 24.5 21 Nordeste 36 Nordeste 0 -- -- 31
2019-05-25 17:00:00 25.1 22 Nordeste 37 Nordeste 0 -- -- 29
2019-05-25 16:00:00 24.1 23 Nordeste 36 Nordeste 0 -- -- 27
2019-05-25 15:00:00 23.5 12 Nordeste 36 Sudeste 0 -- -- 25
2019-05-25 14:00:00 21.1 7 Nordeste 21 Sudeste 0 -- -- 29
2019-05-25 13:00:00 19.4 8 Sudeste 20 Sudeste 0 -- -- 34
2019-05-25 12:00:00 18.7 8 Este 19 Sur 0 -- -- 35
2019-05-25 11:00:00 17.5 9 Nordeste 17 Nordeste 0 -- -- 37
2019-05-25 10:00:00 15.2 6 Este 12 Este 0 -- -- 49
2019-05-25 09:00:00 12.3 2 Sudeste 14 Nordeste 0 -- -- 59
2019-05-25 08:00:00 6 10 Norte 16 Norte 0 -- -- 81
2019-05-25 07:00:00 2.7 5 Norte 11 Nordeste 0 -- -- 85
2019-05-25 06:00:00 5.1 8 Noroeste 12 Noroeste 0 -- -- 85
2019-05-25 05:00:00 3.9 6 Norte 10 Nordeste 0 -- -- 83
2019-05-25 04:00:00 6.3 8 Norte 13 Norte 0 -- -- 77
2019-05-25 03:00:00 7 8 Norte 13 Norte 0 -- -- 75
2019-05-25 02:00:00 8.7 4 Noroeste 14 Norte 0 -- -- 70
2019-05-25 01:00:00 9.1 13 Norte 31 Nordeste 0 -- -- 68
2019-05-25 00:00:00 10.7 28 Nordeste 43 Norte 0 -- -- 62
2019-05-24 23:00:00 11.7 27 Nordeste 37 Nordeste 0 -- -- 58
2019-05-24 22:00:00 12.3 18 Nordeste 32 Nordeste 0 -- -- 57
2019-05-24 21:00:00 15.1 22 Nordeste 46 Nordeste 0 -- -- 48
2019-05-24 20:00:00 16.5 30 Nordeste 50 Nordeste 0 -- -- 43
2019-05-24 19:00:00 19.4 30 Nordeste 45 Nordeste 0 -- -- 38
2019-05-24 18:00:00 20.6 29 Nordeste 42 Nordeste 0 -- -- 36
2019-05-24 17:00:00 22.7 18 Nordeste 33 Nordeste 0 -- -- 31
2019-05-24 16:00:00 21.7 9 Norte 27 Norte 0 -- -- 32
2019-05-24 15:00:00 19 10 Este 31 Este 0 -- -- 39
2019-05-24 14:00:00 20.2 14 Este 26 Nordeste 0 -- -- 38
2019-05-24 13:00:00 18.6 10 Este 23 Nordeste 0 -- -- 38
2019-05-24 12:00:00 16.6 12 Norte 24 Nordeste 0 -- -- 41
2019-05-24 11:00:00 15.7 17 Norte 27 Norte 0 -- -- 41
2019-05-24 10:00:00 14.4 13 Norte 23 Norte 0 -- -- 43
2019-05-24 09:00:00 10.9 9 Nordeste 13 Nordeste 0 -- -- 60
2019-05-24 08:00:00 5.6 8 Norte 10 Norte 0 -- -- 76
2019-05-24 07:00:00 4.4 7 Norte 10 Norte 0 -- -- 77
2019-05-24 06:00:00 5.4 3 Noroeste 11 Noroeste 0 -- -- 75
2019-05-24 05:00:00 6.3 8 Noroeste 15 Norte 0 -- -- 76
2019-05-24 04:00:00 6.6 9 Norte 12 Norte 0 -- -- 78
2019-05-24 03:00:00 9.2 4 Noroeste 17 Noroeste 0 -- -- 69
2019-05-24 02:00:00 10.2 0 Calma 6 Norte 0 -- -- 70
2019-05-24 01:00:00 10.6 3 Sudeste 7 Sudeste 0 -- -- 70
2019-05-24 00:00:00 11.4 4 Oeste 14 Noroeste 0 -- -- 68
2019-05-23 23:00:00 12.5 8 Noroeste 26 Noroeste 0 -- -- 64
2019-05-23 22:00:00 14.4 16 Noroeste 34 Noroeste 0 -- -- 57
2019-05-23 21:00:00 17.9 18 Noroeste 40 Noroeste 0 -- -- 45
2019-05-23 20:00:00 18.9 19 Noroeste 44 Noroeste 0 -- -- 45
2019-05-23 19:00:00 20.5 22 Noroeste 45 Noroeste 0 -- -- 45
2019-05-23 18:00:00 22.6 24 Noroeste 41 Noroeste 0 -- -- 38
2019-05-23 17:00:00 22 27 Norte 43 Noroeste 0 -- -- 42
2019-05-23 16:00:00 22.7 16 Norte 27 Noroeste 0 -- -- 35
2019-05-23 15:00:00 23.3 14 Norte 28 Norte 0 -- -- 32
2019-05-23 14:00:00 21.3 15 Noroeste 25 Norte 0 -- -- 42
2019-05-23 13:00:00 21.4 8 Este 41 Norte 0 -- -- 41
2019-05-23 12:00:00 18.2 11 Oeste 17 Oeste 0 -- -- 52
2019-05-23 11:00:00 18.5 0 Calma 7 Sur 0 -- -- 60
2019-05-23 10:00:00 17.5 3 Nordeste 9 Norte 0 -- -- 62
2019-05-23 09:00:00 12.6 5 Norte 9 Nordeste 0 -- -- 79
2019-05-23 08:00:00 11.7 3 Nordeste 11 Oeste 0 -- -- 80
2019-05-23 07:00:00 10.9 5 Noroeste 10 Norte 0 -- -- 86
2019-05-23 06:00:00 10.6 9 Nordeste 13 Norte 0 -- -- 84
2019-05-23 05:00:00 11.4 7 Norte 9 Norte 0 -- -- 81
2019-05-23 04:00:00 13.8 2 Sudeste 6 Sur 0 -- -- 72
2019-05-23 03:00:00 13.7 0 Calma 8 Norte 0 -- -- 70
2019-05-23 02:00:00 15.1 6 Norte 11 Noroeste 0 -- -- 65
2019-05-23 01:00:00 15.2 3 Nordeste 13 Oeste 0 -- -- 67
2019-05-23 00:00:00 16.4 8 Noroeste 23 Noroeste 0 -- -- 62
2019-05-22 23:00:00 17.4 13 Oeste 24 Noroeste 0 -- -- 54
2019-05-22 22:00:00 19.4 11 Noroeste 21 Oeste 0 -- -- 45
2019-05-22 21:00:00 22 11 Noroeste 21 Oeste 0 -- -- 38
2019-05-22 20:00:00 22.5 9 Noroeste 20 Noroeste 0 -- -- 40
2019-05-22 19:00:00 22.6 13 Oeste 23 Oeste 0 -- -- 39
2019-05-22 18:00:00 24.4 2 Sudoeste 22 Sur 0 -- -- 33
2019-05-22 17:00:00 25.8 9 Sudeste 24 Sur 0 -- -- 30
2019-05-22 16:00:00 24.1 9 Noroeste 27 Oeste 0 -- -- 34
2019-05-22 15:00:00 24.1 14 Sur 28 Sudeste 0 -- -- 31
2019-05-22 14:00:00 22.6 9 Sudeste 23 Sur 0 -- -- 34
2019-05-22 13:00:00 21.3 9 Sudeste 19 Sur 0 -- -- 36
2019-05-22 12:00:00 18.9 9 Sudeste 22 Sudeste 0 -- -- 39
2019-05-22 11:00:00 16.9 11 Sur 18 Sudoeste 0 -- -- 40
2019-05-22 10:00:00 16.2 5 Sur 11 Sur 0 -- -- 45
2019-05-22 09:00:00 14 0 Calma 5 Norte 0 -- -- 61
2019-05-22 08:00:00 7.2 5 Norte 8 Norte 0 -- -- 81
2019-05-22 07:00:00 7.4 5 Norte 6 Norte 0 -- -- 83
2019-05-22 06:00:00 8.1 0 Calma 10 Oeste 0 -- -- 79
2019-05-22 05:00:00 10.7 8 Oeste 17 Sudoeste 0 -- -- 70
2019-05-22 04:00:00 11.1 12 Sudoeste 17 Sudoeste 0 -- -- 68
2019-05-22 03:00:00 11.7 14 Sudoeste 17 Sudoeste 0 -- -- 66
2019-05-22 02:00:00 12.5 7 Sudoeste 10 Sudoeste 0 -- -- 64
2019-05-22 01:00:00 12.6 4 Nordeste 12 Nordeste 0 -- -- 66
2019-05-22 00:00:00 12.7 5 Nordeste 13 Este 0 -- -- 63
2019-05-21 23:00:00 14.7 2 Norte 13 Noroeste 0 -- -- 57
2019-05-21 22:00:00 17.5 0 Calma 10 Noroeste 0 -- -- 44
2019-05-21 21:00:00 21.2 4 Noroeste 15 Oeste 0 -- -- 35
2019-05-21 20:00:00 21.9 0 Calma 10 Sur 0 -- -- 32
2019-05-21 19:00:00 21.3 6 Sur 19 Sudoeste 0 -- -- 32
2019-05-21 18:00:00 23.3 7 Sur 16 Sur 0 -- -- 30
2019-05-21 17:00:00 23.1 5 Norte 19 Este 0 -- -- 29
2019-05-21 16:00:00 21.6 10 Sur 26 Sur 0 -- -- 31
2019-05-21 15:00:00 20.5 7 Nordeste 22 Este 0 -- -- 34
2019-05-21 14:00:00 20.1 9 Oeste 19 Sur 0 -- -- 36
2019-05-21 13:00:00 19.3 9 Sudeste 17 Sudoeste 0 -- -- 39
2019-05-21 12:00:00 18 6 Este 18 Sudeste 0 -- -- 42
2019-05-21 11:00:00 16.8 7 Este 16 Este 0 -- -- 45
2019-05-21 10:00:00 14.9 6 Sur 11 Sur 0 -- -- 53
2019-05-21 09:00:00 13.7 0 Calma 8 Nordeste 0 -- -- 59
2019-05-21 08:00:00 5.7 8 Norte 9 Norte 0 -- -- 83
2019-05-21 07:00:00 5.1 7 Norte 15 Oeste 0 -- -- 79
2019-05-21 06:00:00 9.3 9 Oeste 14 Oeste 0 -- -- 67
2019-05-21 05:00:00 10 5 Noroeste 8 Noroeste 0 -- -- 64
2019-05-21 04:00:00 10.6 4 Norte 15 Nordeste 0 -- -- 66
2019-05-21 03:00:00 11.2 11 Nordeste 22 Nordeste 0 -- -- 58
2019-05-21 02:00:00 11.2 12 Nordeste 21 Este 0 -- -- 57
2019-05-21 01:00:00 12.2 3 Nordeste 10 Noroeste 0 -- -- 47
2019-05-21 00:00:00 12.6 4 Este 20 Noroeste 0 -- -- 46